Time;durP1;ratioP1;P1;durP2;ratioP2;P2;SDS_P1;SDS_P2;PMS_P1;PMS_P2;Temp;Humidity;BMP_temperature;BMP_pressure;BME280_temperature;BME280_humidity;BME280_pressure;Samples;Min_cycle;Max_cycle;Signal;HPM_P1;HPM_P2
2021/04/01 00:01:08;;;;;;;67.78;34.10;;;;;;;;;;5020343;28;21673;-71
2021/04/01 00:03:34;;;;;;;68.22;31.25;;;;;;;;;;5035434;28;20209;-70
2021/04/01 00:05:59;;;;;;;79.03;34.58;;;;;;;;;;5026807;28;20560;-71
2021/04/01 00:08:24;;;;;;;76.72;34.55;;;;;;;;;;5036169;28;20185;-71
2021/04/01 00:10:50;;;;;;;75.53;35.92;;;;;;;;;;5025942;28;20683;-71
2021/04/01 00:13:15;;;;;;;75.65;36.33;;;;;;;;;;5033559;28;20663;-71
2021/04/01 00:15:41;;;;;;;78.25;37.60;;;;;;;;;;5027162;28;20551;-71
2021/04/01 00:18:08;;;;;;;66.75;32.13;;;;;;;;;;5033487;28;20184;-71
2021/04/01 00:20:34;;;;;;;74.22;36.30;;;;;;;;;;5030729;28;20222;-71
2021/04/01 00:22:59;;;;;;;75.20;37.22;;;;;;;;;;5038677;28;20197;-71
2021/04/01 00:25:25;;;;;;;77.18;37.33;;;;;;;;;;5035011;28;20541;-72
2021/04/01 00:27:50;;;;;;;84.25;37.15;;;;;;;;;;5028718;28;20209;-70
2021/04/01 00:30:16;;;;;;;75.97;36.78;;;;;;;;;;5037544;28;20243;-71
2021/04/01 00:32:42;;;;;;;76.57;37.17;;;;;;;;;;5027159;28;20209;-71
2021/04/01 00:35:07;;;;;;;70.47;33.47;;;;;;;;;;5034168;28;20186;-71
2021/04/01 00:37:33;;;;;;;76.43;36.38;;;;;;;;;;5027618;28;20224;-71
2021/04/01 00:39:59;;;;;;;84.32;39.70;;;;;;;;;;5039545;28;20574;-70
2021/04/01 00:42:25;;;;;;;81.13;37.70;;;;;;;;;;5030649;28;20563;-71
2021/04/01 00:44:50;;;;;;;80.22;38.85;;;;;;;;;;5039718;28;20197;-70
2021/04/01 00:47:16;;;;;;;77.00;38.70;;;;;;;;;;5028780;28;20213;-71
2021/04/01 00:49:41;;;;;;;79.88;39.33;;;;;;;;;;5041140;28;20229;-71
2021/04/01 00:52:08;;;;;;;78.80;36.65;;;;;;;;;;5026961;28;20213;-71
2021/04/01 00:54:35;;;;;;;81.80;38.38;;;;;;;;;;5044401;28;20193;-71
2021/04/01 00:57:01;;;;;;;76.80;37.65;;;;;;;;;;5037411;28;20263;-71
2021/04/01 00:59:28;;;;;;;80.35;38.88;;;;;;;;;;5024011;28;20206;-71
2021/04/01 01:01:59;;;;;;;75.30;38.25;;;;;;;;;;5039025;28;20186;-71
2021/04/01 01:04:24;;;;;;;78.30;38.30;;;;;;;;;;5020539;28;20306;-71
2021/04/01 01:06:49;;;;;;;82.25;39.63;;;;;;;;;;5037841;28;20229;-71
2021/04/01 01:09:15;;;;;;;80.22;38.95;;;;;;;;;;5027832;28;20185;-71
2021/04/01 01:11:40;;;;;;;76.70;38.00;;;;;;;;;;5038709;28;20189;-71
2021/04/01 01:14:07;;;;;;;86.25;39.83;;;;;;;;;;5028265;28;20650;-71
2021/04/01 01:16:34;;;;;;;75.88;38.65;;;;;;;;;;5036504;28;20197;-71
2021/04/01 01:19:00;;;;;;;80.50;39.00;;;;;;;;;;5030095;28;20212;-72
2021/04/01 01:21:27;;;;;;;77.55;38.38;;;;;;;;;;5033349;28;20197;-71
2021/04/01 01:23:53;;;;;;;83.15;38.80;;;;;;;;;;5026797;28;21794;-71
2021/04/01 01:26:19;;;;;;;75.90;37.60;;;;;;;;;;5033828;28;20276;-71
2021/04/01 01:28:45;;;;;;;82.82;39.95;;;;;;;;;;5036961;28;20270;-70
2021/04/01 01:31:11;;;;;;;75.80;39.60;;;;;;;;;;5028741;28;20190;-71
2021/04/01 01:33:44;;;;;;;79.38;38.35;;;;;;;;;;5040049;28;20193;-71
2021/04/01 01:36:11;;;;;;;75.68;37.85;;;;;;;;;;5027179;28;20186;-70
2021/04/01 01:38:37;;;;;;;79.00;39.72;;;;;;;;;;5038850;28;20213;-71
2021/04/01 01:41:03;;;;;;;83.00;40.92;;;;;;;;;;5027553;28;20186;-71
2021/04/01 01:43:30;;;;;;;76.32;38.85;;;;;;;;;;5029900;28;20828;-71
2021/04/01 01:45:56;;;;;;;79.45;39.55;;;;;;;;;;5025408;28;20209;-71
2021/04/01 01:48:21;;;;;;;70.78;35.15;;;;;;;;;;5033106;28;20254;-71
2021/04/01 01:50:47;;;;;;;82.90;40.35;;;;;;;;;;5032155;28;20188;-71
2021/04/01 01:53:13;;;;;;;83.32;39.97;;;;;;;;;;5043420;28;20181;-71
2021/04/01 01:55:39;;;;;;;75.60;38.22;;;;;;;;;;5032516;28;20189;-71
2021/04/01 01:58:05;;;;;;;76.95;40.28;;;;;;;;;;5038869;28;20276;-71
2021/04/01 02:00:45;;;;;;;83.72;38.70;;;;;;;;;;5032544;28;20288;-70
2021/04/01 02:03:11;;;;;;;81.28;39.45;;;;;;;;;;5037593;28;20677;-70
2021/04/01 02:05:39;;;;;;;81.07;40.10;;;;;;;;;;5041768;28;20185;-70
2021/04/01 02:08:06;;;;;;;79.30;38.15;;;;;;;;;;5031022;28;20627;-70
2021/04/01 02:10:37;;;;;;;75.38;38.03;;;;;;;;;;5044493;28;20306;-71
2021/04/01 02:13:03;;;;;;;81.18;38.63;;;;;;;;;;5031987;28;20200;-71
2021/04/01 02:15:35;;;;;;;78.40;38.83;;;;;;;;;;5041118;28;20282;-71
2021/04/01 02:18:18;;;;;;;78.10;38.85;;;;;;;;;;5032802;28;20189;-71
2021/04/01 02:20:46;;;;;;;80.35;40.10;;;;;;;;;;5039120;28;20240;-70
2021/04/01 02:23:26;;;;;;;76.53;36.88;;;;;;;;;;5031419;28;20189;-70
2021/04/01 02:25:54;;;;;;;80.00;38.25;;;;;;;;;;5041204;28;20254;-70
2021/04/01 02:28:22;;;;;;;78.88;39.95;;;;;;;;;;5031364;28;20208;-70
2021/04/01 02:30:50;;;;;;;75.03;39.15;;;;;;;;;;5036725;28;20182;-70
2021/04/01 02:33:18;;;;;;;79.80;41.05;;;;;;;;;;5033207;28;20186;-70
2021/04/01 02:35:43;;;;;;;77.05;39.67;;;;;;;;;;5023943;28;20236;-70
2021/04/01 02:38:08;;;;;;;79.75;38.97;;;;;;;;;;5028252;28;20197;-71
2021/04/01 02:40:35;;;;;;;80.85;39.92;;;;;;;;;;5037931;28;20280;-71
2021/04/01 02:43:00;;;;;;;80.15;39.20;;;;;;;;;;5027097;28;20185;-71
2021/04/01 02:45:26;;;;;;;80.88;39.97;;;;;;;;;;5041962;28;20220;-71
2021/04/01 02:47:52;;;;;;;81.20;39.50;;;;;;;;;;5031637;28;20178;-71
2021/04/01 02:50:18;;;;;;;77.90;39.15;;;;;;;;;;5040477;28;20275;-71
2021/04/01 02:52:44;;;;;;;80.60;39.92;;;;;;;;;;5031948;28;20582;-71
2021/04/01 02:55:10;;;;;;;82.07;39.95;;;;;;;;;;5028988;28;20190;-71
2021/04/01 02:57:36;;;;;;;76.53;40.00;;;;;;;;;;5040369;28;20182;-71
2021/04/01 03:00:05;;;;;;;84.28;40.75;;;;;;;;;;5029189;28;20259;-71
2021/04/01 03:02:31;;;;;;;79.82;37.55;;;;;;;;;;5037537;28;20185;-71
2021/04/01 03:04:58;;;;;;;80.90;38.88;;;;;;;;;;5023685;28;20703;-71
2021/04/01 03:07:23;;;;;;;85.90;40.20;;;;;;;;;;5038287;28;20599;-71
2021/04/01 03:09:48;;;;;;;75.68;37.60;;;;;;;;;;5025709;28;20177;-71
2021/04/01 03:12:14;;;;;;;81.50;38.30;;;;;;;;;;5033712;28;20189;-71
2021/04/01 03:14:39;;;;;;;81.53;39.50;;;;;;;;;;5024584;28;20239;-71
2021/04/01 03:17:04;;;;;;;84.32;39.70;;;;;;;;;;5040813;28;20193;-71
2021/04/01 03:19:30;;;;;;;80.57;39.47;;;;;;;;;;5030195;28;20220;-71
2021/04/01 03:21:55;;;;;;;80.25;37.97;;;;;;;;;;5033234;28;20207;-71
2021/04/01 03:24:21;;;;;;;86.32;39.75;;;;;;;;;;5030799;28;20235;-71
2021/04/01 03:26:46;;;;;;;88.13;39.25;;;;;;;;;;5029003;28;20209;-70
2021/04/01 03:29:12;;;;;;;82.00;37.85;;;;;;;;;;5033417;28;20190;-70
2021/04/01 03:31:37;;;;;;;88.38;38.67;;;;;;;;;;5029249;28;20649;-70
2021/04/01 03:34:02;;;;;;;89.00;39.80;;;;;;;;;;5035618;28;20189;-71
2021/04/01 03:36:28;;;;;;;82.40;37.85;;;;;;;;;;5027548;28;20217;-71
2021/04/01 03:38:54;;;;;;;88.85;39.70;;;;;;;;;;5043485;28;20560;-71
2021/04/01 03:41:20;;;;;;;90.00;39.78;;;;;;;;;;5027649;28;20212;-71
2021/04/01 03:43:46;;;;;;;90.10;40.20;;;;;;;;;;5036156;28;20603;-71
2021/04/01 03:46:13;;;;;;;89.75;39.03;;;;;;;;;;5033233;28;20201;-71
2021/04/01 03:48:38;;;;;;;95.63;40.92;;;;;;;;;;5039894;28;20222;-71
2021/04/01 03:51:04;;;;;;;92.75;40.47;;;;;;;;;;5027749;28;20340;-71
2021/04/01 03:53:29;;;;;;;89.18;39.78;;;;;;;;;;5036315;28;20234;-71
2021/04/01 03:55:55;;;;;;;94.43;41.58;;;;;;;;;;5038150;28;20193;-70
2021/04/01 03:58:44;;;;;;;93.55;41.65;;;;;;;;;;5030691;28;20190;-70
2021/04/01 04:01:21;;;;;;;94.85;41.28;;;;;;;;;;5036177;28;20736;-71
2021/04/01 04:04:02;;;;;;;95.10;41.50;;;;;;;;;;5025518;28;20271;-71
2021/04/01 04:14:26;;;;;;;101.20;41.78;;;;;;;;;;5033613;28;20197;-71
2021/04/01 04:16:52;;;;;;;100.22;42.65;;;;;;;;;;5028436;28;20174;-71
2021/04/01 04:19:17;;;;;;;93.95;41.63;;;;;;;;;;5029811;28;20197;-72
2021/04/01 04:21:43;;;;;;;95.00;41.35;;;;;;;;;;5038422;28;20188;-71
2021/04/01 04:24:10;;;;;;;92.28;40.67;;;;;;;;;;5031031;28;20182;-71
2021/04/01 04:26:36;;;;;;;103.97;43.25;;;;;;;;;;5034086;28;20626;-71
2021/04/01 04:29:01;;;;;;;98.82;42.90;;;;;;;;;;5027544;28;20185;-71
2021/04/01 04:31:27;;;;;;;94.90;41.42;;;;;;;;;;5032030;28;20184;-71
2021/04/01 04:33:52;;;;;;;91.68;41.53;;;;;;;;;;5023377;28;20657;-71
2021/04/01 04:36:17;;;;;;;99.78;42.78;;;;;;;;;;5033624;28;20190;-71
2021/04/01 04:38:43;;;;;;;91.50;40.13;;;;;;;;;;5027498;28;20217;-71
2021/04/01 04:41:08;;;;;;;96.28;41.45;;;;;;;;;;5031581;28;20185;-70
2021/04/01 04:43:35;;;;;;;95.53;42.88;;;;;;;;;;5033488;28;20188;-70
2021/04/01 04:46:00;;;;;;;100.43;42.75;;;;;;;;;;5024028;28;20208;-70
2021/04/01 04:48:26;;;;;;;102.70;41.78;;;;;;;;;;5035339;28;20229;-70
2021/04/01 04:50:52;;;;;;;100.88;42.72;;;;;;;;;;5024078;28;20196;-70
2021/04/01 04:53:17;;;;;;;94.20;41.78;;;;;;;;;;5031113;28;20194;-71
2021/04/01 04:58:25;;;;;;;97.40;42.78;;;;;;;;;;5038058;28;20193;-71
2021/04/01 05:01:04;;;;;;;90.28;42.20;;;;;;;;;;5030270;28;20194;-71
2021/04/01 05:06:27;;;;;;;98.18;42.47;;;;;;;;;;5026759;28;20309;-71
2021/04/01 05:08:53;;;;;;;100.93;44.88;;;;;;;;;;5038137;28;20181;-71
2021/04/01 05:11:18;;;;;;;96.78;41.88;;;;;;;;;;5026485;28;20613;-71
2021/04/01 05:13:44;;;;;;;105.43;44.22;;;;;;;;;;5034741;28;20649;-71
2021/04/01 05:16:09;;;;;;;106.30;43.13;;;;;;;;;;5026231;28;20593;-71
2021/04/01 05:18:34;;;;;;;97.68;42.42;;;;;;;;;;5039396;28;20224;-71
2021/04/01 05:21:02;;;;;;;105.65;44.28;;;;;;;;;;5026236;28;20296;-71
2021/04/01 05:23:36;;;;;;;104.43;43.85;;;;;;;;;;5031617;28;20185;-71
2021/04/01 05:28:41;;;;;;;100.63;44.15;;;;;;;;;;5035500;28;20209;-71
2021/04/01 05:31:09;;;;;;;115.57;46.35;;;;;;;;;;5036639;28;20592;-72
2021/04/01 05:33:36;;;;;;;118.07;47.38;;;;;;;;;;5027997;28;20195;-72
2021/04/01 05:36:06;;;;;;;120.30;48.45;;;;;;;;;;5036758;28;20182;-72
2021/04/01 05:38:32;;;;;;;118.22;49.08;;;;;;;;;;5027783;28;20229;-72
2021/04/01 05:40:58;;;;;;;115.45;49.05;;;;;;;;;;5037704;28;20186;-71
2021/04/01 05:43:27;;;;;;;120.45;49.72;;;;;;;;;;5025766;28;20476;-71
2021/04/01 05:45:57;;;;;;;128.10;51.47;;;;;;;;;;5035698;28;20240;-71
2021/04/01 05:48:30;;;;;;;129.15;52.28;;;;;;;;;;5027224;28;20712;-71
2021/04/01 05:51:22;;;;;;;127.90;51.85;;;;;;;;;;5038875;28;20270;-72
2021/04/01 06:04:59;;;;;;;121.68;49.40;;;;;;;;;;5010143;28;20504;-71
2021/04/01 06:07:31;;;;;;;130.30;53.58;;;;;;;;;;5040718;28;20200;-71
2021/04/01 06:09:58;;;;;;;129.52;52.83;;;;;;;;;;5007388;28;20178;-71
2021/04/01 06:12:31;;;;;;;143.77;55.10;;;;;;;;;;5035379;28;20297;-71
2021/04/01 06:15:10;;;;;;;137.00;55.40;;;;;;;;;;5020459;28;20247;-71
2021/04/01 06:17:45;;;;;;;138.77;55.97;;;;;;;;;;5029176;28;20653;-71
2021/04/01 06:20:11;;;;;;;136.93;57.03;;;;;;;;;;5024758;28;20206;-71
2021/04/01 06:22:40;;;;;;;134.65;55.22;;;;;;;;;;5025395;28;20615;-71
2021/04/01 06:25:11;;;;;;;140.07;58.30;;;;;;;;;;5018011;28;20205;-71
2021/04/01 06:27:42;;;;;;;143.70;57.45;;;;;;;;;;5027810;28;20251;-72
2021/04/01 06:30:19;;;;;;;138.88;58.55;;;;;;;;;;5025866;28;20840;-68
2021/04/01 06:32:52;;;;;;;143.25;59.33;;;;;;;;;;5027834;28;20437;-72
2021/04/01 06:35:24;;;;;;;146.20;60.47;;;;;;;;;;5030915;28;20297;-71
2021/04/01 06:40:43;;;;;;;142.98;61.17;;;;;;;;;;5029661;28;20221;-71
2021/04/01 06:43:18;;;;;;;142.10;60.40;;;;;;;;;;5033821;28;20194;-71
2021/04/01 06:45:52;;;;;;;141.63;62.17;;;;;;;;;;5028030;28;20201;-72
2021/04/01 06:48:19;;;;;;;141.30;62.58;;;;;;;;;;5038057;28;20224;-71
2021/04/01 06:50:48;;;;;;;142.35;62.58;;;;;;;;;;5027658;28;20700;-70
2021/04/01 06:53:34;;;;;;;155.32;63.20;;;;;;;;;;5032643;28;20679;-70
2021/04/01 06:59:09;;;;;;;138.27;60.70;;;;;;;;;;5042084;28;20207;-70
2021/04/01 07:01:45;;;;;;;138.80;62.42;;;;;;;;;;5030064;28;20197;-70
2021/04/01 07:04:11;;;;;;;158.43;66.78;;;;;;;;;;5030832;28;20296;-71
2021/04/01 07:06:41;;;;;;;143.45;61.95;;;;;;;;;;5023010;28;20283;-71
2021/04/01 07:12:23;;;;;;;137.80;62.88;;;;;;;;;;5024077;28;20631;-71
2021/04/01 07:14:51;;;;;;;148.27;66.25;;;;;;;;;;5034008;28;20481;-71
2021/04/01 07:17:29;;;;;;;140.27;64.22;;;;;;;;;;5031827;28;20195;-70
2021/04/01 07:47:17;;;;;;;133.38;62.13;;;;;;;;;;5036752;28;20207;-71
2021/04/01 07:49:46;;;;;;;131.95;62.60;;;;;;;;;;5026986;28;20221;-71
2021/04/01 07:52:13;;;;;;;140.90;64.65;;;;;;;;;;5031755;28;20221;-71
2021/04/01 07:54:54;;;;;;;135.07;64.43;;;;;;;;;;5027402;28;20196;-72
2021/04/01 08:02:53;;;;;;;129.95;63.90;;;;;;;;;;5037585;28;20280;-71
2021/04/01 08:05:38;;;;;;;135.50;63.10;;;;;;;;;;5027833;28;20304;-71
2021/04/01 08:08:08;;;;;;;137.90;65.15;;;;;;;;;;5034836;28;20272;-71
2021/04/01 08:10:42;;;;;;;132.82;64.43;;;;;;;;;;5020779;28;20182;-71
2021/04/01 08:13:12;;;;;;;134.75;65.97;;;;;;;;;;5030161;28;21345;-71
2021/04/01 08:15:49;;;;;;;133.65;65.70;;;;;;;;;;5024534;28;20293;-72
2021/04/01 08:18:22;;;;;;;131.55;59.10;;;;;;;;;;5036531;28;20208;-71
2021/04/01 08:20:54;;;;;;;130.30;64.75;;;;;;;;;;5027783;28;20213;-71
2021/04/01 08:23:29;;;;;;;122.63;56.72;;;;;;;;;;5031000;28;20212;-71
2021/04/01 08:26:14;;;;;;;118.28;55.53;;;;;;;;;;5028768;28;20587;-72
2021/04/01 08:31:55;;;;;;;94.60;45.40;;;;;;;;;;5029824;28;20212;-71
2021/04/01 08:36:54;;;;;;;81.50;38.33;;;;;;;;;;5028679;28;20197;-71
2021/04/01 08:39:22;;;;;;;70.15;34.13;;;;;;;;;;5033587;28;20197;-71
2021/04/01 08:41:56;;;;;;;66.93;32.95;;;;;;;;;;5025149;28;20642;-71
2021/04/01 08:44:59;;;;;;;52.45;26.13;;;;;;;;;;5033824;28;20283;-71
2021/04/01 08:47:39;;;;;;;37.15;20.15;;;;;;;;;;5026863;28;20199;-71
2021/04/01 08:50:28;;;;;;;38.17;17.30;;;;;;;;;;5031415;28;20220;-71
2021/04/01 08:53:21;;;;;;;32.60;15.77;;;;;;;;;;5030801;28;20185;-71
2021/04/01 08:56:10;;;;;;;27.05;13.93;;;;;;;;;;5040487;28;20184;-71
2021/04/01 08:58:46;;;;;;;29.83;14.00;;;;;;;;;;5030216;28;20228;-71
2021/04/01 09:01:15;;;;;;;27.20;12.60;;;;;;;;;;5037493;28;20223;-71
2021/04/01 09:03:48;;;;;;;27.17;12.93;;;;;;;;;;5034385;28;20256;-71
2021/04/01 09:06:18;;;;;;;20.63;10.65;;;;;;;;;;5038825;28;20201;-71
2021/04/01 09:08:53;;;;;;;22.30;10.52;;;;;;;;;;5033850;28;20272;-71
2021/04/01 09:11:26;;;;;;;21.42;9.50;;;;;;;;;;5035906;28;20208;-71
2021/04/01 09:13:55;;;;;;;16.05;6.70;;;;;;;;;;5033187;28;20527;-71
2021/04/01 09:16:30;;;;;;;18.90;7.47;;;;;;;;;;5039026;28;20184;-71
2021/04/01 09:19:04;;;;;;;17.05;5.72;;;;;;;;;;5031496;28;20267;-70
2021/04/01 09:21:34;;;;;;;13.52;5.22;;;;;;;;;;5036372;28;20240;-71
2021/04/01 09:24:01;;;;;;;12.15;4.75;;;;;;;;;;5030593;28;20197;-72
2021/04/01 09:26:27;;;;;;;13.07;5.00;;;;;;;;;;5037581;28;20197;-71
2021/04/01 09:29:03;;;;;;;6.22;3.50;;;;;;;;;;5029108;28;20259;-71
2021/04/01 09:31:38;;;;;;;10.55;4.40;;;;;;;;;;5042986;28;20185;-72
2021/04/01 09:34:05;;;;;;;8.20;3.30;;;;;;;;;;5030024;28;20227;-70
2021/04/01 09:36:42;;;;;;;10.40;4.03;;;;;;;;;;5042412;28;20197;-71
2021/04/01 09:41:40;;;;;;;11.55;2.95;;;;;;;;;;5037818;28;20194;-70
2021/04/01 09:44:08;;;;;;;9.85;2.47;;;;;;;;;;5039258;28;20195;-71
2021/04/01 09:46:36;;;;;;;10.07;2.35;;;;;;;;;;5029483;28;20648;-71
2021/04/01 09:49:09;;;;;;;9.63;2.40;;;;;;;;;;5038548;28;20233;-71
2021/04/01 09:51:34;;;;;;;11.38;2.58;;;;;;;;;;5028406;28;20189;-71
2021/04/01 09:54:00;;;;;;;13.45;2.13;;;;;;;;;;5039541;28;20196;-71
2021/04/01 09:56:31;;;;;;;12.40;2.50;;;;;;;;;;5032750;28;20276;-71
2021/04/01 09:58:58;;;;;;;10.93;2.10;;;;;;;;;;5052812;28;20305;-71
2021/04/01 10:04:05;;;;;;;15.02;2.15;;;;;;;;;;5040032;28;20213;-71
2021/04/01 10:06:35;;;;;;;10.35;1.88;;;;;;;;;;5031855;28;20639;-71
2021/04/01 10:09:14;;;;;;;8.68;1.73;;;;;;;;;;5040040;28;20205;-71
2021/04/01 10:11:44;;;;;;;12.57;2.25;;;;;;;;;;5028503;28;20200;-71
2021/04/01 10:14:11;;;;;;;10.60;2.17;;;;;;;;;;5038272;28;20186;-70
2021/04/01 10:17:01;;;;;;;9.63;2.20;;;;;;;;;;5027672;28;20866;-70
2021/04/01 10:19:49;;;;;;;13.07;2.22;;;;;;;;;;5033248;28;20194;-70
2021/04/01 10:22:25;;;;;;;9.90;2.17;;;;;;;;;;5031259;28;20181;-71
2021/04/01 10:25:14;;;;;;;9.75;2.75;;;;;;;;;;5035200;28;20594;-71
2021/04/01 10:27:54;;;;;;;12.70;2.50;;;;;;;;;;5028305;28;20277;-71
2021/04/01 10:30:21;;;;;;;19.55;2.50;;;;;;;;;;5040486;28;20652;-71
2021/04/01 10:32:53;;;;;;;15.38;2.42;;;;;;;;;;5031767;28;20220;-71
2021/04/01 10:35:24;;;;;;;15.02;3.22;;;;;;;;;;5040202;28;20224;-70
2021/04/01 10:37:52;;;;;;;15.32;3.17;;;;;;;;;;5030007;28;20551;-71
2021/04/01 10:40:20;;;;;;;14.07;2.97;;;;;;;;;;5036669;28;20297;-70
2021/04/01 10:42:50;;;;;;;17.67;4.15;;;;;;;;;;5026967;28;20186;-71
2021/04/01 10:45:22;;;;;;;15.65;3.90;;;;;;;;;;5038098;28;20178;-71
2021/04/01 10:48:02;;;;;;;17.83;4.50;;;;;;;;;;5030047;28;20255;-70
2021/04/01 10:50:28;;;;;;;16.85;4.85;;;;;;;;;;5033702;28;20177;-70
2021/04/01 10:52:57;;;;;;;14.27;5.05;;;;;;;;;;5041118;28;20212;-71
2021/04/01 10:55:28;;;;;;;13.90;4.40;;;;;;;;;;5030081;28;20597;-70
2021/04/01 10:58:06;;;;;;;13.50;4.40;;;;;;;;;;5041017;28;20269;-70
2021/04/01 11:00:31;;;;;;;13.95;4.22;;;;;;;;;;5033401;28;20209;-70
2021/04/01 11:03:02;;;;;;;11.60;4.38;;;;;;;;;;5040546;28;20209;-70
2021/04/01 11:05:31;;;;;;;13.57;3.75;;;;;;;;;;5032650;28;20189;-70
2021/04/01 11:08:11;;;;;;;17.20;4.57;;;;;;;;;;5036425;28;20200;-70
2021/04/01 11:10:38;;;;;;;10.77;4.20;;;;;;;;;;5027486;28;20631;-71
2021/04/01 11:13:07;;;;;;;11.88;3.88;;;;;;;;;;5041121;28;20220;-71
2021/04/01 11:15:34;;;;;;;11.15;3.95;;;;;;;;;;5030281;28;20276;-69
2021/04/01 11:18:01;;;;;;;13.27;4.32;;;;;;;;;;5034672;28;20189;-68
2021/04/01 11:20:33;;;;;;;13.25;4.88;;;;;;;;;;5025881;28;20217;-69
2021/04/01 11:23:04;;;;;;;13.55;4.53;;;;;;;;;;5038972;28;20288;-69
2021/04/01 11:25:30;;;;;;;16.17;4.75;;;;;;;;;;5029027;28;20623;-70
2021/04/01 11:27:55;;;;;;;11.60;3.40;;;;;;;;;;5041072;28;20186;-69
2021/04/01 11:30:23;;;;;;;15.70;3.55;;;;;;;;;;5027647;28;20594;-70
2021/04/01 11:32:54;;;;;;;11.68;4.38;;;;;;;;;;5035840;28;20196;-70
2021/04/01 11:35:24;;;;;;;13.60;3.78;;;;;;;;;;5025302;28;20186;-70
2021/04/01 11:37:53;;;;;;;8.40;3.30;;;;;;;;;;5036876;28;20198;-70
2021/04/01 11:40:19;;;;;;;9.30;3.13;;;;;;;;;;5041432;28;20221;-70
2021/04/01 11:42:58;;;;;;;8.45;2.80;;;;;;;;;;5027996;28;20236;-70
2021/04/01 11:45:37;;;;;;;10.13;2.63;;;;;;;;;;5040447;28;20197;-69
2021/04/01 11:48:05;;;;;;;8.50;2.08;;;;;;;;;;5024740;28;20232;-70
2021/04/01 11:50:31;;;;;;;10.85;2.20;;;;;;;;;;5035928;28;20237;-70
2021/04/01 11:53:01;;;;;;;7.15;1.83;;;;;;;;;;5031074;28;20681;-71
2021/04/01 11:55:30;;;;;;;10.00;1.80;;;;;;;;;;5034120;28;20185;-71
2021/04/01 11:57:56;;;;;;;6.97;1.60;;;;;;;;;;5025735;28;20185;-71
2021/04/01 12:03:07;;;;;;;5.00;1.42;;;;;;;;;;5028549;28;20585;-71
2021/04/01 12:05:40;;;;;;;11.15;2.10;;;;;;;;;;5035390;28;20661;-71
2021/04/01 12:08:06;;;;;;;9.23;2.03;;;;;;;;;;5032676;28;20204;-70
2021/04/01 12:10:31;;;;;;;8.90;2.05;;;;;;;;;;5035594;28;20591;-70
2021/04/01 12:12:57;;;;;;;10.73;2.22;;;;;;;;;;5028840;28;20193;-71
2021/04/01 12:15:33;;;;;;;7.22;1.85;;;;;;;;;;5033530;28;20657;-71
2021/04/01 12:18:00;;;;;;;7.32;1.67;;;;;;;;;;5031730;28;20191;-71
2021/04/01 12:20:26;;;;;;;12.52;1.83;;;;;;;;;;5031551;28;20246;-71
2021/04/01 12:22:55;;;;;;;8.10;1.55;;;;;;;;;;5029660;28;20201;-71
2021/04/01 12:25:23;;;;;;;10.23;1.58;;;;;;;;;;5036675;28;20193;-71
2021/04/01 12:27:51;;;;;;;7.38;1.40;;;;;;;;;;5035825;28;20189;-71
2021/04/01 12:30:21;;;;;;;5.97;1.40;;;;;;;;;;5030026;28;20184;-71
2021/04/01 12:32:47;;;;;;;6.10;1.60;;;;;;;;;;5028502;28;20589;-71
2021/04/01 12:35:15;;;;;;;11.27;1.58;;;;;;;;;;5021138;28;20212;-71
2021/04/01 12:37:42;;;;;;;8.32;1.48;;;;;;;;;;5032499;28;20269;-70
2021/04/01 12:40:19;;;;;;;6.82;1.27;;;;;;;;;;5025630;28;20741;-71
2021/04/01 12:42:45;;;;;;;5.35;1.33;;;;;;;;;;5033558;28;20190;-70
2021/04/01 12:45:30;;;;;;;11.68;1.75;;;;;;;;;;5022031;28;20197;-70
2021/04/01 12:48:10;;;;;;;6.68;1.45;;;;;;;;;;5032552;28;20303;-70
2021/04/01 12:50:38;;;;;;;12.13;1.45;;;;;;;;;;5023923;28;20913;-70
2021/04/01 12:53:04;;;;;;;7.15;1.67;;;;;;;;;;5036813;28;20273;-70
2021/04/01 12:55:56;;;;;;;6.70;1.40;;;;;;;;;;5026772;28;20280;-70
2021/04/01 12:58:33;;;;;;;10.02;1.33;;;;;;;;;;5034189;28;20192;-70
2021/04/01 13:01:09;;;;;;;11.32;1.52;;;;;;;;;;5029152;28;20212;-70
2021/04/01 13:03:34;;;;;;;4.68;1.55;;;;;;;;;;5030585;28;20260;-71
2021/04/01 13:06:05;;;;;;;6.07;1.23;;;;;;;;;;5031586;28;20198;-71
2021/04/01 13:11:14;;;;;;;8.45;1.98;;;;;;;;;;5025711;28;20220;-71
2021/04/01 13:13:41;;;;;;;10.52;1.73;;;;;;;;;;5030185;28;20637;-70
2021/04/01 13:16:06;;;;;;;12.38;1.60;;;;;;;;;;5023243;28;20189;-71
2021/04/01 13:18:32;;;;;;;9.93;1.80;;;;;;;;;;5029489;28;20872;-70
2021/04/01 13:20:58;;;;;;;10.60;1.90;;;;;;;;;;5025391;28;20293;-71
2021/04/01 13:23:30;;;;;;;10.18;1.90;;;;;;;;;;5033053;28;20182;-70
2021/04/01 13:25:56;;;;;;;9.38;2.35;;;;;;;;;;5033929;28;20198;-71
2021/04/01 13:28:22;;;;;;;8.02;1.80;;;;;;;;;;5025951;28;20190;-70
2021/04/01 13:30:50;;;;;;;15.57;2.13;;;;;;;;;;5035355;28;20181;-71
2021/04/01 13:33:22;;;;;;;9.25;1.83;;;;;;;;;;5027848;28;20186;-71
2021/04/01 13:35:55;;;;;;;8.60;1.70;;;;;;;;;;5038160;28;20650;-70
2021/04/01 13:38:24;;;;;;;5.65;1.58;;;;;;;;;;5032525;28;20241;-71
2021/04/01 13:40:52;;;;;;;20.38;2.83;;;;;;;;;;5036011;28;20580;-70
2021/04/01 13:43:21;;;;;;;11.80;2.08;;;;;;;;;;5029179;28;21527;-71
2021/04/01 13:45:46;;;;;;;9.27;1.88;;;;;;;;;;5037291;28;20672;-71
2021/04/01 13:48:18;;;;;;;12.32;1.75;;;;;;;;;;5029445;28;20193;-71
2021/04/01 13:50:51;;;;;;;12.00;1.67;;;;;;;;;;5037185;28;20204;-70
2021/04/01 13:55:45;;;;;;;14.07;2.35;;;;;;;;;;5040483;28;20642;-69
2021/04/01 14:11:37;;;;;;;11.65;1.92;;;;;;;;;;5040630;28;20201;-69
2021/04/01 14:14:03;;;;;;;8.52;1.98;;;;;;;;;;5031922;28;20204;-70
2021/04/01 14:16:28;;;;;;;9.20;1.58;;;;;;;;;;5040526;28;20186;-70
2021/04/01 14:18:54;;;;;;;9.68;1.90;;;;;;;;;;5030300;28;20178;-70
2021/04/01 14:21:21;;;;;;;7.40;1.60;;;;;;;;;;5034487;28;20190;-70
2021/04/01 14:23:48;;;;;;;10.60;1.70;;;;;;;;;;5039877;28;20204;-71
2021/04/01 14:28:45;;;;;;;13.50;2.60;;;;;;;;;;5040214;28;20233;-70
2021/04/01 14:31:11;;;;;;;9.90;1.80;;;;;;;;;;5026037;28;20186;-70
2021/04/01 14:33:40;;;;;;;12.57;2.35;;;;;;;;;;5039129;28;20204;-70
2021/04/01 14:36:07;;;;;;;17.73;2.20;;;;;;;;;;5030919;28;20190;-70
2021/04/01 14:38:34;;;;;;;9.55;1.75;;;;;;;;;;5036384;28;20194;-70
2021/04/01 14:41:49;;;;;;;11.38;2.28;;;;;;;;;;5033321;28;20289;-69
2021/04/01 14:46:29;;;;;;;6.55;1.77;;;;;;;;;;5031720;28;20941;-70
2021/04/01 14:48:56;;;;;;;10.63;1.95;;;;;;;;;;5038085;28;20233;-70
2021/04/01 14:51:22;;;;;;;15.80;2.05;;;;;;;;;;5028824;28;20701;-71
2021/04/01 14:53:54;;;;;;;11.15;1.85;;;;;;;;;;5040797;28;20204;-70
2021/04/01 14:56:22;;;;;;;7.53;1.65;;;;;;;;;;5030614;28;20725;-70
2021/04/01 14:58:48;;;;;;;7.10;1.15;;;;;;;;;;5037787;28;20235;-70
2021/04/01 15:01:17;;;;;;;6.97;1.75;;;;;;;;;;5030751;28;20625;-70
2021/04/01 15:03:43;;;;;;;6.22;1.77;;;;;;;;;;5040931;28;20208;-70
2021/04/01 15:06:12;;;;;;;6.70;1.25;;;;;;;;;;5037914;28;20456;-70
2021/04/01 15:08:38;;;;;;;8.55;1.65;;;;;;;;;;5024283;28;20289;-71
2021/04/01 15:11:04;;;;;;;8.48;1.77;;;;;;;;;;5038954;28;20268;-70
2021/04/01 15:13:30;;;;;;;9.57;1.88;;;;;;;;;;5026914;28;20669;-70
2021/04/01 15:15:56;;;;;;;9.75;2.15;;;;;;;;;;5038652;28;20280;-70
2021/04/01 15:18:24;;;;;;;10.45;2.72;;;;;;;;;;5028207;28;20197;-70
2021/04/01 15:20:50;;;;;;;9.55;1.95;;;;;;;;;;5039779;28;20209;-70
2021/04/01 15:23:15;;;;;;;9.85;2.05;;;;;;;;;;5026097;28;20203;-70
2021/04/01 15:25:40;;;;;;;12.27;2.45;;;;;;;;;;5032802;28;20874;-70
2021/04/01 15:28:07;;;;;;;10.60;2.10;;;;;;;;;;5025549;28;20212;-70
2021/04/01 15:30:32;;;;;;;8.40;2.47;;;;;;;;;;5033150;28;20186;-70
2021/04/01 15:32:57;;;;;;;8.27;2.30;;;;;;;;;;5025626;28;20239;-69
2021/04/01 15:35:23;;;;;;;8.02;2.40;;;;;;;;;;5034020;28;20191;-70
2021/04/01 15:37:48;;;;;;;9.32;2.13;;;;;;;;;;5033093;28;20189;-69
2021/04/01 15:40:14;;;;;;;8.02;2.88;;;;;;;;;;5025754;28;20761;-69
2021/04/01 15:42:39;;;;;;;9.23;2.88;;;;;;;;;;5030302;28;20186;-70
2021/04/01 15:45:08;;;;;;;6.45;2.28;;;;;;;;;;5028947;28;20243;-70
2021/04/01 15:47:33;;;;;;;11.15;2.75;;;;;;;;;;5032043;28;20587;-70
2021/04/01 15:49:59;;;;;;;5.10;1.70;;;;;;;;;;5024156;28;20275;-70
2021/04/01 15:52:24;;;;;;;12.90;2.67;;;;;;;;;;5032086;28;20584;-69
2021/04/01 15:54:49;;;;;;;4.20;1.25;;;;;;;;;;5021936;28;20220;-70
2021/04/01 15:57:15;;;;;;;6.72;1.52;;;;;;;;;;5031938;28;20182;-70
2021/04/01 15:59:40;;;;;;;9.35;1.67;;;;;;;;;;5030532;28;20217;-69
2021/04/01 16:02:06;;;;;;;4.53;1.33;;;;;;;;;;5029143;28;20540;-69
2021/04/01 16:04:32;;;;;;;7.90;1.73;;;;;;;;;;5027335;28;20260;-70
2021/04/01 16:06:57;;;;;;;4.65;1.60;;;;;;;;;;5025686;28;20190;-70
2021/04/01 16:09:22;;;;;;;4.47;1.55;;;;;;;;;;5027425;28;20484;-70
2021/04/01 16:11:48;;;;;;;5.43;1.50;;;;;;;;;;5021431;28;20198;-69
2021/04/01 16:14:14;;;;;;;7.82;2.00;;;;;;;;;;5033223;28;20892;-69
2021/04/01 16:16:40;;;;;;;3.85;1.38;;;;;;;;;;5022943;28;20193;-69
2021/04/01 16:19:06;;;;;;;4.97;1.77;;;;;;;;;;5029772;28;20208;-70
2021/04/01 16:21:31;;;;;;;3.60;1.42;;;;;;;;;;5024231;28;20572;-70